sensor_id;sensor_type;location;lat;lon;timestamp;P1;durP1;ratioP1;P2;durP2;ratioP2
69244;SDS011;56357;52.304;4.870;2023-05-10T00:01:58;14.93;;;6.78;;
69244;SDS011;56357;52.304;4.870;2023-05-10T00:04:24;13.02;;;6.30;;
69244;SDS011;56357;52.304;4.870;2023-05-10T00:06:52;11.20;;;5.95;;
69244;SDS011;56357;52.304;4.870;2023-05-10T00:09:19;13.13;;;6.65;;
69244;SDS011;56357;52.304;4.870;2023-05-10T00:11:45;12.13;;;6.20;;
69244;SDS011;56357;52.304;4.870;2023-05-10T00:14:12;12.38;;;6.40;;
69244;SDS011;56357;52.304;4.870;2023-05-10T00:16:38;11.70;;;6.22;;
69244;SDS011;56357;52.304;4.870;2023-05-10T00:19:05;12.52;;;6.20;;
69244;SDS011;56357;52.304;4.870;2023-05-10T00:21:31;12.40;;;6.47;;
69244;SDS011;56357;52.304;4.870;2023-05-10T00:23:58;11.98;;;6.15;;
69244;SDS011;56357;52.304;4.870;2023-05-10T00:26:25;12.00;;;6.53;;
69244;SDS011;56357;52.304;4.870;2023-05-10T00:28:51;13.65;;;6.03;;
69244;SDS011;56357;52.304;4.870;2023-05-10T00:31:18;11.05;;;5.75;;
69244;SDS011;56357;52.304;4.870;2023-05-10T00:33:44;13.57;;;6.50;;
69244;SDS011;56357;52.304;4.870;2023-05-10T00:36:11;12.80;;;6.50;;
69244;SDS011;56357;52.304;4.870;2023-05-10T00:38:37;11.77;;;6.15;;
69244;SDS011;56357;52.304;4.870;2023-05-10T00:41:04;12.43;;;6.50;;
69244;SDS011;56357;52.304;4.870;2023-05-10T00:43:30;12.52;;;6.00;;
69244;SDS011;56357;52.304;4.870;2023-05-10T00:45:57;13.40;;;6.80;;
69244;SDS011;56357;52.304;4.870;2023-05-10T00:48:23;11.73;;;6.20;;
69244;SDS011;56357;52.304;4.870;2023-05-10T00:50:50;15.30;;;6.75;;
69244;SDS011;56357;52.304;4.870;2023-05-10T00:53:17;11.05;;;6.55;;
69244;SDS011;56357;52.304;4.870;2023-05-10T00:55:43;14.55;;;7.15;;
69244;SDS011;56357;52.304;4.870;2023-05-10T00:58:10;14.52;;;6.82;;
69244;SDS011;56357;52.304;4.870;2023-05-10T01:00:36;13.52;;;7.63;;
69244;SDS011;56357;52.304;4.870;2023-05-10T01:03:04;14.43;;;7.28;;
69244;SDS011;56357;52.304;4.870;2023-05-10T01:05:30;12.82;;;6.53;;
69244;SDS011;56357;52.304;4.870;2023-05-10T01:07:57;12.88;;;6.75;;
69244;SDS011;56357;52.304;4.870;2023-05-10T01:10:23;13.87;;;7.23;;
69244;SDS011;56357;52.304;4.870;2023-05-10T01:12:50;16.30;;;7.20;;
69244;SDS011;56357;52.304;4.870;2023-05-10T01:15:16;14.35;;;7.45;;
69244;SDS011;56357;52.304;4.870;2023-05-10T01:17:44;14.82;;;7.18;;
69244;SDS011;56357;52.304;4.870;2023-05-10T01:20:13;14.75;;;7.32;;
69244;SDS011;56357;52.304;4.870;2023-05-10T01:25:11;13.57;;;7.40;;
69244;SDS011;56357;52.304;4.870;2023-05-10T01:30:35;12.88;;;7.70;;
69244;SDS011;56357;52.304;4.870;2023-05-10T01:36:08;13.90;;;7.33;;
69244;SDS011;56357;52.304;4.870;2023-05-10T01:38:49;11.57;;;6.10;;
69244;SDS011;56357;52.304;4.870;2023-05-10T01:41:18;12.02;;;6.93;;
69244;SDS011;56357;52.304;4.870;2023-05-10T01:43:53;14.07;;;6.63;;
69244;SDS011;56357;52.304;4.870;2023-05-10T01:46:31;13.40;;;6.82;;
69244;SDS011;56357;52.304;4.870;2023-05-10T01:49:01;13.13;;;6.53;;
69244;SDS011;56357;52.304;4.870;2023-05-10T01:51:42;14.32;;;7.18;;
69244;SDS011;56357;52.304;4.870;2023-05-10T01:54:13;13.80;;;6.47;;
69244;SDS011;56357;52.304;4.870;2023-05-10T01:56:43;11.93;;;6.85;;
69244;SDS011;56357;52.304;4.870;2023-05-10T01:59:15;14.20;;;7.10;;
69244;SDS011;56357;52.304;4.870;2023-05-10T02:01:46;14.90;;;7.23;;
69244;SDS011;56357;52.304;4.870;2023-05-10T02:04:15;13.05;;;7.18;;
69244;SDS011;56357;52.304;4.870;2023-05-10T02:06:43;13.55;;;7.10;;
69244;SDS011;56357;52.304;4.870;2023-05-10T02:09:12;12.88;;;6.97;;
69244;SDS011;56357;52.304;4.870;2023-05-10T02:11:41;12.05;;;6.90;;
69244;SDS011;56357;52.304;4.870;2023-05-10T02:14:10;14.03;;;6.57;;
69244;SDS011;56357;52.304;4.870;2023-05-10T02:16:37;12.60;;;5.88;;
69244;SDS011;56357;52.304;4.870;2023-05-10T02:19:05;13.05;;;6.63;;
69244;SDS011;56357;52.304;4.870;2023-05-10T02:21:34;12.02;;;6.45;;
69244;SDS011;56357;52.304;4.870;2023-05-10T02:24:02;13.05;;;5.95;;
69244;SDS011;56357;52.304;4.870;2023-05-10T02:26:30;13.70;;;7.40;;
69244;SDS011;56357;52.304;4.870;2023-05-10T02:28:59;11.35;;;5.70;;
69244;SDS011;56357;52.304;4.870;2023-05-10T02:31:30;12.98;;;6.90;;
69244;SDS011;56357;52.304;4.870;2023-05-10T02:33:58;14.40;;;7.30;;
69244;SDS011;56357;52.304;4.870;2023-05-10T02:36:27;12.32;;;5.85;;
69244;SDS011;56357;52.304;4.870;2023-05-10T02:38:54;14.03;;;6.73;;
69244;SDS011;56357;52.304;4.870;2023-05-10T02:41:22;10.82;;;5.90;;
69244;SDS011;56357;52.304;4.870;2023-05-10T02:43:50;14.68;;;6.55;;
69244;SDS011;56357;52.304;4.870;2023-05-10T02:46:18;12.07;;;6.40;;
69244;SDS011;56357;52.304;4.870;2023-05-10T02:48:44;13.73;;;6.55;;
69244;SDS011;56357;52.304;4.870;2023-05-10T02:51:11;13.67;;;6.00;;
69244;SDS011;56357;52.304;4.870;2023-05-10T02:53:42;12.75;;;6.55;;
69244;SDS011;56357;52.304;4.870;2023-05-10T02:56:12;11.10;;;6.00;;
69244;SDS011;56357;52.304;4.870;2023-05-10T02:58:42;12.23;;;6.30;;
69244;SDS011;56357;52.304;4.870;2023-05-10T03:01:08;11.27;;;5.70;;
69244;SDS011;56357;52.304;4.870;2023-05-10T03:03:35;14.80;;;6.10;;
69244;SDS011;56357;52.304;4.870;2023-05-10T03:06:02;14.88;;;6.80;;
69244;SDS011;56357;52.304;4.870;2023-05-10T03:08:28;13.80;;;6.30;;
69244;SDS011;56357;52.304;4.870;2023-05-10T03:10:59;13.45;;;7.15;;
69244;SDS011;56357;52.304;4.870;2023-05-10T03:13:52;13.50;;;6.70;;
69244;SDS011;56357;52.304;4.870;2023-05-10T03:16:29;10.97;;;6.33;;
69244;SDS011;56357;52.304;4.870;2023-05-10T03:19:12;13.50;;;6.70;;
69244;SDS011;56357;52.304;4.870;2023-05-10T03:21:45;15.20;;;6.85;;
69244;SDS011;56357;52.304;4.870;2023-05-10T03:24:15;15.88;;;7.57;;
69244;SDS011;56357;52.304;4.870;2023-05-10T03:26:43;13.40;;;7.22;;
69244;SDS011;56357;52.304;4.870;2023-05-10T03:29:14;16.27;;;8.20;;
69244;SDS011;56357;52.304;4.870;2023-05-10T03:31:41;18.00;;;9.25;;
69244;SDS011;56357;52.304;4.870;2023-05-10T03:34:08;16.30;;;8.25;;
69244;SDS011;56357;52.304;4.870;2023-05-10T03:36:35;14.52;;;7.53;;
69244;SDS011;56357;52.304;4.870;2023-05-10T03:39:01;17.17;;;7.90;;
69244;SDS011;56357;52.304;4.870;2023-05-10T03:41:28;14.52;;;7.25;;
69244;SDS011;56357;52.304;4.870;2023-05-10T03:43:55;13.82;;;7.07;;
69244;SDS011;56357;52.304;4.870;2023-05-10T03:46:21;16.10;;;6.97;;
69244;SDS011;56357;52.304;4.870;2023-05-10T03:48:48;13.55;;;5.82;;
69244;SDS011;56357;52.304;4.870;2023-05-10T03:51:14;11.73;;;5.38;;
69244;SDS011;56357;52.304;4.870;2023-05-10T03:53:40;10.88;;;5.35;;
69244;SDS011;56357;52.304;4.870;2023-05-10T03:56:07;13.70;;;5.18;;
69244;SDS011;56357;52.304;4.870;2023-05-10T03:58:33;10.82;;;4.88;;
69244;SDS011;56357;52.304;4.870;2023-05-10T04:01:00;9.95;;;5.05;;
69244;SDS011;56357;52.304;4.870;2023-05-10T04:03:27;10.82;;;4.70;;
69244;SDS011;56357;52.304;4.870;2023-05-10T04:06:00;9.83;;;4.40;;
69244;SDS011;56357;52.304;4.870;2023-05-10T04:08:27;12.35;;;4.90;;
69244;SDS011;56357;52.304;4.870;2023-05-10T04:10:53;9.35;;;4.30;;
69244;SDS011;56357;52.304;4.870;2023-05-10T04:13:20;10.48;;;5.15;;
69244;SDS011;56357;52.304;4.870;2023-05-10T04:15:46;9.45;;;4.65;;
69244;SDS011;56357;52.304;4.870;2023-05-10T04:18:12;9.53;;;4.33;;
69244;SDS011;56357;52.304;4.870;2023-05-10T04:20:39;9.30;;;4.20;;
69244;SDS011;56357;52.304;4.870;2023-05-10T04:23:05;11.20;;;4.82;;
69244;SDS011;56357;52.304;4.870;2023-05-10T04:25:33;11.95;;;4.28;;
69244;SDS011;56357;52.304;4.870;2023-05-10T04:28:00;9.82;;;4.53;;
69244;SDS011;56357;52.304;4.870;2023-05-10T04:30:27;10.98;;;4.65;;
69244;SDS011;56357;52.304;4.870;2023-05-10T04:32:54;11.45;;;4.70;;
69244;SDS011;56357;52.304;4.870;2023-05-10T04:35:20;10.88;;;4.45;;
69244;SDS011;56357;52.304;4.870;2023-05-10T04:37:46;12.38;;;5.35;;
69244;SDS011;56357;52.304;4.870;2023-05-10T04:40:13;10.93;;;4.75;;
69244;SDS011;56357;52.304;4.870;2023-05-10T04:42:40;11.53;;;4.57;;
69244;SDS011;56357;52.304;4.870;2023-05-10T04:45:07;10.57;;;4.60;;
69244;SDS011;56357;52.304;4.870;2023-05-10T04:47:34;11.48;;;4.68;;
69244;SDS011;56357;52.304;4.870;2023-05-10T04:50:02;11.23;;;5.07;;
69244;SDS011;56357;52.304;4.870;2023-05-10T04:52:28;11.38;;;4.53;;
69244;SDS011;56357;52.304;4.870;2023-05-10T04:54:55;9.20;;;4.00;;
69244;SDS011;56357;52.304;4.870;2023-05-10T04:57:22;10.05;;;4.07;;
69244;SDS011;56357;52.304;4.870;2023-05-10T04:59:48;11.30;;;4.78;;
69244;SDS011;56357;52.304;4.870;2023-05-10T05:02:14;11.57;;;5.00;;
69244;SDS011;56357;52.304;4.870;2023-05-10T05:04:41;10.60;;;5.00;;
69244;SDS011;56357;52.304;4.870;2023-05-10T05:07:07;12.15;;;5.00;;
69244;SDS011;56357;52.304;4.870;2023-05-10T05:09:34;7.78;;;3.83;;
69244;SDS011;56357;52.304;4.870;2023-05-10T05:12:00;12.20;;;5.38;;
69244;SDS011;56357;52.304;4.870;2023-05-10T05:14:27;13.63;;;6.20;;
69244;SDS011;56357;52.304;4.870;2023-05-10T05:16:53;14.93;;;5.55;;
69244;SDS011;56357;52.304;4.870;2023-05-10T05:19:20;13.63;;;5.55;;
69244;SDS011;56357;52.304;4.870;2023-05-10T05:21:47;15.93;;;5.43;;
69244;SDS011;56357;52.304;4.870;2023-05-10T05:24:13;13.57;;;5.25;;
69244;SDS011;56357;52.304;4.870;2023-05-10T05:26:40;16.95;;;6.13;;
69244;SDS011;56357;52.304;4.870;2023-05-10T05:29:06;12.27;;;5.05;;
69244;SDS011;56357;52.304;4.870;2023-05-10T05:31:33;11.43;;;5.27;;
69244;SDS011;56357;52.304;4.870;2023-05-10T05:34:00;12.57;;;4.45;;
69244;SDS011;56357;52.304;4.870;2023-05-10T05:36:26;11.60;;;4.97;;
69244;SDS011;56357;52.304;4.870;2023-05-10T05:38:53;10.48;;;4.88;;
69244;SDS011;56357;52.304;4.870;2023-05-10T05:41:19;9.85;;;4.85;;
69244;SDS011;56357;52.304;4.870;2023-05-10T05:43:46;13.70;;;5.00;;
69244;SDS011;56357;52.304;4.870;2023-05-10T05:46:12;11.13;;;4.75;;
69244;SDS011;56357;52.304;4.870;2023-05-10T05:48:39;12.70;;;4.93;;
69244;SDS011;56357;52.304;4.870;2023-05-10T05:51:05;14.48;;;5.68;;
69244;SDS011;56357;52.304;4.870;2023-05-10T05:53:32;16.95;;;5.43;;
69244;SDS011;56357;52.304;4.870;2023-05-10T05:55:58;13.33;;;5.10;;
69244;SDS011;56357;52.304;4.870;2023-05-10T05:58:25;12.98;;;5.22;;
69244;SDS011;56357;52.304;4.870;2023-05-10T06:00:51;11.38;;;4.82;;
69244;SDS011;56357;52.304;4.870;2023-05-10T06:03:18;19.42;;;5.57;;
69244;SDS011;56357;52.304;4.870;2023-05-10T06:05:44;20.60;;;5.72;;
69244;SDS011;56357;52.304;4.870;2023-05-10T06:08:11;15.88;;;5.53;;
69244;SDS011;56357;52.304;4.870;2023-05-10T06:10:37;16.38;;;5.68;;
69244;SDS011;56357;52.304;4.870;2023-05-10T06:13:04;14.00;;;4.53;;
69244;SDS011;56357;52.304;4.870;2023-05-10T06:15:30;16.75;;;5.50;;
69244;SDS011;56357;52.304;4.870;2023-05-10T06:17:57;13.50;;;5.00;;
69244;SDS011;56357;52.304;4.870;2023-05-10T06:20:24;12.77;;;5.78;;
69244;SDS011;56357;52.304;4.870;2023-05-10T06:22:50;15.07;;;4.95;;
69244;SDS011;56357;52.304;4.870;2023-05-10T06:25:17;17.85;;;5.40;;
69244;SDS011;56357;52.304;4.870;2023-05-10T06:27:45;17.05;;;5.75;;
69244;SDS011;56357;52.304;4.870;2023-05-10T06:30:12;17.63;;;5.32;;
69244;SDS011;56357;52.304;4.870;2023-05-10T06:32:40;15.70;;;5.53;;
69244;SDS011;56357;52.304;4.870;2023-05-10T06:35:08;18.67;;;5.85;;
69244;SDS011;56357;52.304;4.870;2023-05-10T06:37:35;16.13;;;5.95;;
69244;SDS011;56357;52.304;4.870;2023-05-10T06:40:01;17.10;;;6.35;;
69244;SDS011;56357;52.304;4.870;2023-05-10T06:42:28;20.10;;;5.95;;
69244;SDS011;56357;52.304;4.870;2023-05-10T06:44:55;16.38;;;6.55;;
69244;SDS011;56357;52.304;4.870;2023-05-10T06:47:21;21.33;;;6.68;;
69244;SDS011;56357;52.304;4.870;2023-05-10T06:49:48;17.55;;;6.53;;
69244;SDS011;56357;52.304;4.870;2023-05-10T06:52:14;15.60;;;6.78;;
69244;SDS011;56357;52.304;4.870;2023-05-10T06:54:40;16.52;;;6.13;;
69244;SDS011;56357;52.304;4.870;2023-05-10T06:57:07;17.83;;;6.13;;
69244;SDS011;56357;52.304;4.870;2023-05-10T06:59:33;23.58;;;6.90;;
69244;SDS011;56357;52.304;4.870;2023-05-10T07:02:01;17.60;;;6.10;;
69244;SDS011;56357;52.304;4.870;2023-05-10T07:04:28;15.18;;;6.07;;
69244;SDS011;56357;52.304;4.870;2023-05-10T07:06:54;17.58;;;6.40;;
69244;SDS011;56357;52.304;4.870;2023-05-10T07:09:22;19.30;;;7.07;;
69244;SDS011;56357;52.304;4.870;2023-05-10T07:11:48;20.45;;;6.85;;
69244;SDS011;56357;52.304;4.870;2023-05-10T07:14:15;19.05;;;6.50;;
69244;SDS011;56357;52.304;4.870;2023-05-10T07:16:41;23.65;;;7.30;;
69244;SDS011;56357;52.304;4.870;2023-05-10T07:19:07;17.02;;;6.55;;
69244;SDS011;56357;52.304;4.870;2023-05-10T07:21:34;18.20;;;5.90;;
69244;SDS011;56357;52.304;4.870;2023-05-10T07:24:01;16.60;;;5.93;;
69244;SDS011;56357;52.304;4.870;2023-05-10T07:26:27;19.67;;;6.32;;
69244;SDS011;56357;52.304;4.870;2023-05-10T07:28:54;18.30;;;6.40;;
69244;SDS011;56357;52.304;4.870;2023-05-10T07:31:20;13.68;;;6.13;;
69244;SDS011;56357;52.304;4.870;2023-05-10T07:33:47;17.67;;;6.82;;
69244;SDS011;56357;52.304;4.870;2023-05-10T07:36:13;15.85;;;6.78;;
69244;SDS011;56357;52.304;4.870;2023-05-10T07:38:40;16.17;;;5.93;;
69244;SDS011;56357;52.304;4.870;2023-05-10T07:41:06;17.27;;;6.28;;
69244;SDS011;56357;52.304;4.870;2023-05-10T07:43:32;17.15;;;5.95;;
69244;SDS011;56357;52.304;4.870;2023-05-10T07:45:59;12.95;;;5.82;;
69244;SDS011;56357;52.304;4.870;2023-05-10T07:48:26;13.88;;;4.70;;
69244;SDS011;56357;52.304;4.870;2023-05-10T07:50:52;16.90;;;5.72;;
69244;SDS011;56357;52.304;4.870;2023-05-10T07:53:18;13.85;;;5.25;;
69244;SDS011;56357;52.304;4.870;2023-05-10T07:55:49;13.27;;;5.50;;
69244;SDS011;56357;52.304;4.870;2023-05-10T07:58:17;29.38;;;5.93;;
69244;SDS011;56357;52.304;4.870;2023-05-10T08:00:44;12.05;;;4.50;;
69244;SDS011;56357;52.304;4.870;2023-05-10T08:03:10;14.02;;;4.90;;
69244;SDS011;56357;52.304;4.870;2023-05-10T08:05:36;17.58;;;5.57;;
69244;SDS011;56357;52.304;4.870;2023-05-10T08:08:03;14.32;;;5.38;;
69244;SDS011;56357;52.304;4.870;2023-05-10T08:10:30;16.70;;;5.65;;
69244;SDS011;56357;52.304;4.870;2023-05-10T08:12:56;13.65;;;5.18;;
69244;SDS011;56357;52.304;4.870;2023-05-10T08:15:24;11.18;;;4.82;;
69244;SDS011;56357;52.304;4.870;2023-05-10T08:17:51;12.40;;;5.03;;
69244;SDS011;56357;52.304;4.870;2023-05-10T08:20:18;14.13;;;5.28;;
69244;SDS011;56357;52.304;4.870;2023-05-10T08:22:45;13.35;;;5.43;;
69244;SDS011;56357;52.304;4.870;2023-05-10T08:25:11;13.85;;;4.72;;
69244;SDS011;56357;52.304;4.870;2023-05-10T08:27:38;14.68;;;5.40;;
69244;SDS011;56357;52.304;4.870;2023-05-10T08:30:05;13.00;;;5.38;;
69244;SDS011;56357;52.304;4.870;2023-05-10T08:32:32;11.23;;;4.65;;
69244;SDS011;56357;52.304;4.870;2023-05-10T08:34:59;11.90;;;5.10;;
69244;SDS011;56357;52.304;4.870;2023-05-10T08:37:29;16.52;;;5.05;;
69244;SDS011;56357;52.304;4.870;2023-05-10T08:39:57;16.35;;;5.10;;
69244;SDS011;56357;52.304;4.870;2023-05-10T08:42:23;14.40;;;5.25;;
69244;SDS011;56357;52.304;4.870;2023-05-10T08:44:54;10.63;;;4.45;;
69244;SDS011;56357;52.304;4.870;2023-05-10T08:47:23;9.57;;;4.68;;
69244;SDS011;56357;52.304;4.870;2023-05-10T08:49:51;12.95;;;4.25;;
69244;SDS011;56357;52.304;4.870;2023-05-10T08:52:18;9.00;;;4.40;;
69244;SDS011;56357;52.304;4.870;2023-05-10T08:54:45;11.35;;;4.35;;
69244;SDS011;56357;52.304;4.870;2023-05-10T08:57:12;11.30;;;4.57;;
69244;SDS011;56357;52.304;4.870;2023-05-10T08:59:38;9.57;;;4.60;;
69244;SDS011;56357;52.304;4.870;2023-05-10T09:02:05;12.07;;;4.75;;
69244;SDS011;56357;52.304;4.870;2023-05-10T09:04:33;10.90;;;4.45;;
69244;SDS011;56357;52.304;4.870;2023-05-10T09:06:59;11.07;;;4.57;;
69244;SDS011;56357;52.304;4.870;2023-05-10T09:09:26;10.82;;;4.53;;
69244;SDS011;56357;52.304;4.870;2023-05-10T09:11:53;8.68;;;4.13;;
69244;SDS011;56357;52.304;4.870;2023-05-10T09:14:20;8.65;;;3.92;;
69244;SDS011;56357;52.304;4.870;2023-05-10T09:16:49;10.25;;;4.70;;
69244;SDS011;56357;52.304;4.870;2023-05-10T09:19:15;10.85;;;4.30;;
69244;SDS011;56357;52.304;4.870;2023-05-10T09:21:42;10.35;;;4.47;;
69244;SDS011;56357;52.304;4.870;2023-05-10T09:24:09;11.50;;;4.85;;
69244;SDS011;56357;52.304;4.870;2023-05-10T09:26:35;13.35;;;4.70;;
69244;SDS011;56357;52.304;4.870;2023-05-10T09:29:12;8.85;;;3.88;;
69244;SDS011;56357;52.304;4.870;2023-05-10T09:31:43;10.43;;;3.88;;
69244;SDS011;56357;52.304;4.870;2023-05-10T09:34:20;9.50;;;4.25;;
69244;SDS011;56357;52.304;4.870;2023-05-10T09:36:56;9.82;;;4.38;;
69244;SDS011;56357;52.304;4.870;2023-05-10T09:39:35;9.23;;;4.32;;
69244;SDS011;56357;52.304;4.870;2023-05-10T09:42:07;8.82;;;4.05;;
69244;SDS011;56357;52.304;4.870;2023-05-10T09:44:34;12.05;;;3.92;;
69244;SDS011;56357;52.304;4.870;2023-05-10T09:47:02;8.07;;;4.10;;
69244;SDS011;56357;52.304;4.870;2023-05-10T09:49:30;8.27;;;3.78;;
69244;SDS011;56357;52.304;4.870;2023-05-10T09:52:14;8.40;;;3.90;;
69244;SDS011;56357;52.304;4.870;2023-05-10T09:54:42;8.40;;;3.50;;
69244;SDS011;56357;52.304;4.870;2023-05-10T09:57:21;9.00;;;3.45;;
69244;SDS011;56357;52.304;4.870;2023-05-10T09:59:49;8.57;;;2.83;;
69244;SDS011;56357;52.304;4.870;2023-05-10T10:02:18;7.28;;;3.40;;
69244;SDS011;56357;52.304;4.870;2023-05-10T10:04:45;8.60;;;3.38;;
69244;SDS011;56357;52.304;4.870;2023-05-10T10:07:17;9.80;;;3.03;;
69244;SDS011;56357;52.304;4.870;2023-05-10T10:09:49;10.25;;;3.97;;
69244;SDS011;56357;52.304;4.870;2023-05-10T10:12:16;7.80;;;2.70;;
69244;SDS011;56357;52.304;4.870;2023-05-10T10:14:42;11.20;;;3.05;;
69244;SDS011;56357;52.304;4.870;2023-05-10T10:17:09;8.23;;;2.75;;
69244;SDS011;56357;52.304;4.870;2023-05-10T10:19:36;9.05;;;2.63;;
69244;SDS011;56357;52.304;4.870;2023-05-10T10:22:02;8.05;;;2.92;;
69244;SDS011;56357;52.304;4.870;2023-05-10T10:24:29;7.38;;;2.63;;
69244;SDS011;56357;52.304;4.870;2023-05-10T10:26:57;8.60;;;3.17;;
69244;SDS011;56357;52.304;4.870;2023-05-10T10:29:33;7.45;;;2.72;;
69244;SDS011;56357;52.304;4.870;2023-05-10T10:35:26;6.80;;;2.75;;
69244;SDS011;56357;52.304;4.870;2023-05-10T10:37:55;7.95;;;2.65;;
69244;SDS011;56357;52.304;4.870;2023-05-10T10:40:26;6.70;;;3.40;;
69244;SDS011;56357;52.304;4.870;2023-05-10T10:42:54;7.53;;;2.30;;
69244;SDS011;56357;52.304;4.870;2023-05-10T10:45:21;6.47;;;2.70;;
69244;SDS011;56357;52.304;4.870;2023-05-10T10:47:49;7.90;;;2.38;;
69244;SDS011;56357;52.304;4.870;2023-05-10T10:50:45;7.55;;;2.88;;
69244;SDS011;56357;52.304;4.870;2023-05-10T10:53:12;12.48;;;2.95;;
69244;SDS011;56357;52.304;4.870;2023-05-10T10:55:48;12.75;;;3.22;;
69244;SDS011;56357;52.304;4.870;2023-05-10T10:58:30;11.02;;;2.92;;
69244;SDS011;56357;52.304;4.870;2023-05-10T11:01:13;8.93;;;3.35;;
69244;SDS011;56357;52.304;4.870;2023-05-10T11:06:28;11.73;;;3.00;;
69244;SDS011;56357;52.304;4.870;2023-05-10T11:08:56;9.32;;;2.88;;
69244;SDS011;56357;52.304;4.870;2023-05-10T11:11:23;7.65;;;2.97;;
69244;SDS011;56357;52.304;4.870;2023-05-10T11:13:50;8.70;;;3.60;;
69244;SDS011;56357;52.304;4.870;2023-05-10T11:18:54;16.38;;;2.88;;
69244;SDS011;56357;52.304;4.870;2023-05-10T11:21:30;11.80;;;3.00;;
69244;SDS011;56357;52.304;4.870;2023-05-10T11:24:01;9.80;;;3.15;;
69244;SDS011;56357;52.304;4.870;2023-05-10T11:26:31;9.73;;;2.90;;
69244;SDS011;56357;52.304;4.870;2023-05-10T11:29:00;9.88;;;2.80;;
69244;SDS011;56357;52.304;4.870;2023-05-10T11:31:27;8.43;;;3.25;;
69244;SDS011;56357;52.304;4.870;2023-05-10T11:33:56;9.60;;;3.08;;
69244;SDS011;56357;52.304;4.870;2023-05-10T11:36:25;9.73;;;3.65;;
69244;SDS011;56357;52.304;4.870;2023-05-10T11:38:53;8.45;;;3.03;;
69244;SDS011;56357;52.304;4.870;2023-05-10T11:41:21;10.40;;;3.28;;
69244;SDS011;56357;52.304;4.870;2023-05-10T11:43:55;10.25;;;3.35;;
69244;SDS011;56357;52.304;4.870;2023-05-10T11:46:23;8.38;;;2.72;;
69244;SDS011;56357;52.304;4.870;2023-05-10T11:48:51;6.90;;;3.28;;
69244;SDS011;56357;52.304;4.870;2023-05-10T11:51:22;8.98;;;3.10;;
69244;SDS011;56357;52.304;4.870;2023-05-10T11:53:52;8.50;;;3.40;;
69244;SDS011;56357;52.304;4.870;2023-05-10T11:56:19;7.53;;;3.30;;
69244;SDS011;56357;52.304;4.870;2023-05-10T11:58:52;9.05;;;2.85;;
69244;SDS011;56357;52.304;4.870;2023-05-10T12:01:20;10.40;;;3.20;;
69244;SDS011;56357;52.304;4.870;2023-05-10T12:03:47;8.15;;;3.25;;
69244;SDS011;56357;52.304;4.870;2023-05-10T12:06:15;9.48;;;3.40;;
69244;SDS011;56357;52.304;4.870;2023-05-10T12:08:45;8.73;;;3.15;;
69244;SDS011;56357;52.304;4.870;2023-05-10T12:11:12;9.90;;;3.85;;
69244;SDS011;56357;52.304;4.870;2023-05-10T12:13:41;8.00;;;3.40;;
69244;SDS011;56357;52.304;4.870;2023-05-10T12:18:51;11.43;;;3.55;;
69244;SDS011;56357;52.304;4.870;2023-05-10T12:21:22;8.10;;;3.17;;
69244;SDS011;56357;52.304;4.870;2023-05-10T12:23:49;8.50;;;3.40;;
69244;SDS011;56357;52.304;4.870;2023-05-10T12:26:17;9.70;;;4.18;;
69244;SDS011;56357;52.304;4.870;2023-05-10T12:28:47;9.68;;;3.90;;
69244;SDS011;56357;52.304;4.870;2023-05-10T12:31:13;8.18;;;3.60;;
69244;SDS011;56357;52.304;4.870;2023-05-10T12:33:41;8.18;;;3.80;;
69244;SDS011;56357;52.304;4.870;2023-05-10T12:36:11;9.48;;;3.90;;
69244;SDS011;56357;52.304;4.870;2023-05-10T12:38:41;10.45;;;3.72;;
69244;SDS011;56357;52.304;4.870;2023-05-10T12:41:09;10.13;;;3.50;;
69244;SDS011;56357;52.304;4.870;2023-05-10T12:43:37;8.52;;;3.55;;
69244;SDS011;56357;52.304;4.870;2023-05-10T12:46:11;10.55;;;3.72;;
69244;SDS011;56357;52.304;4.870;2023-05-10T12:48:40;8.95;;;3.60;;
69244;SDS011;56357;52.304;4.870;2023-05-10T12:51:08;15.13;;;3.60;;
69244;SDS011;56357;52.304;4.870;2023-05-10T12:53:36;8.77;;;3.90;;
69244;SDS011;56357;52.304;4.870;2023-05-10T12:56:04;7.80;;;3.08;;
69244;SDS011;56357;52.304;4.870;2023-05-10T12:58:30;8.43;;;3.35;;
69244;SDS011;56357;52.304;4.870;2023-05-10T13:00:57;6.70;;;3.10;;
69244;SDS011;56357;52.304;4.870;2023-05-10T13:03:25;9.80;;;3.55;;
69244;SDS011;56357;52.304;4.870;2023-05-10T13:05:51;8.52;;;3.22;;
69244;SDS011;56357;52.304;4.870;2023-05-10T13:08:18;10.35;;;3.53;;
69244;SDS011;56357;52.304;4.870;2023-05-10T13:10:44;11.25;;;3.60;;
69244;SDS011;56357;52.304;4.870;2023-05-10T13:13:10;7.05;;;3.10;;
69244;SDS011;56357;52.304;4.870;2023-05-10T13:15:37;7.15;;;2.92;;
69244;SDS011;56357;52.304;4.870;2023-05-10T13:18:03;6.63;;;2.60;;
69244;SDS011;56357;52.304;4.870;2023-05-10T13:20:30;8.45;;;3.00;;
69244;SDS011;56357;52.304;4.870;2023-05-10T13:22:56;7.13;;;2.70;;
69244;SDS011;56357;52.304;4.870;2023-05-10T13:25:23;8.40;;;2.95;;
69244;SDS011;56357;52.304;4.870;2023-05-10T13:27:49;7.65;;;2.55;;
69244;SDS011;56357;52.304;4.870;2023-05-10T13:30:16;8.52;;;3.75;;
69244;SDS011;56357;52.304;4.870;2023-05-10T13:32:42;6.78;;;2.97;;
69244;SDS011;56357;52.304;4.870;2023-05-10T13:35:09;8.85;;;3.28;;
69244;SDS011;56357;52.304;4.870;2023-05-10T13:37:36;9.35;;;3.92;;
69244;SDS011;56357;52.304;4.870;2023-05-10T13:40:03;7.75;;;2.78;;
69244;SDS011;56357;52.304;4.870;2023-05-10T13:42:31;9.00;;;3.83;;
69244;SDS011;56357;52.304;4.870;2023-05-10T13:44:58;8.35;;;3.00;;
69244;SDS011;56357;52.304;4.870;2023-05-10T13:47:25;8.95;;;3.72;;
69244;SDS011;56357;52.304;4.870;2023-05-10T13:49:51;10.43;;;2.97;;
69244;SDS011;56357;52.304;4.870;2023-05-10T13:52:18;10.30;;;3.53;;
69244;SDS011;56357;52.304;4.870;2023-05-10T13:54:44;10.48;;;3.97;;
69244;SDS011;56357;52.304;4.870;2023-05-10T13:57:11;12.93;;;3.97;;
69244;SDS011;56357;52.304;4.870;2023-05-10T13:59:38;10.27;;;4.45;;
69244;SDS011;56357;52.304;4.870;2023-05-10T14:02:05;13.38;;;4.30;;
69244;SDS011;56357;52.304;4.870;2023-05-10T14:04:32;15.13;;;4.18;;
69244;SDS011;56357;52.304;4.870;2023-05-10T14:07:00;12.35;;;4.55;;
69244;SDS011;56357;52.304;4.870;2023-05-10T14:09:26;14.43;;;4.22;;
69244;SDS011;56357;52.304;4.870;2023-05-10T14:11:53;15.30;;;4.55;;
69244;SDS011;56357;52.304;4.870;2023-05-10T14:14:20;10.95;;;4.25;;
69244;SDS011;56357;52.304;4.870;2023-05-10T14:16:47;12.55;;;4.47;;
69244;SDS011;56357;52.304;4.870;2023-05-10T14:19:13;14.55;;;4.45;;
69244;SDS011;56357;52.304;4.870;2023-05-10T14:21:40;12.75;;;4.43;;
69244;SDS011;56357;52.304;4.870;2023-05-10T14:24:06;20.65;;;4.30;;
69244;SDS011;56357;52.304;4.870;2023-05-10T14:26:33;12.80;;;4.15;;
69244;SDS011;56357;52.304;4.870;2023-05-10T14:29:00;18.05;;;4.20;;
69244;SDS011;56357;52.304;4.870;2023-05-10T14:31:26;15.88;;;4.32;;
69244;SDS011;56357;52.304;4.870;2023-05-10T14:33:55;17.35;;;4.60;;
69244;SDS011;56357;52.304;4.870;2023-05-10T14:36:22;15.10;;;4.43;;
69244;SDS011;56357;52.304;4.870;2023-05-10T14:38:48;14.35;;;4.60;;
69244;SDS011;56357;52.304;4.870;2023-05-10T14:41:15;15.73;;;4.70;;
69244;SDS011;56357;52.304;4.870;2023-05-10T14:43:42;17.88;;;4.63;;
69244;SDS011;56357;52.304;4.870;2023-05-10T14:46:09;15.73;;;4.65;;
69244;SDS011;56357;52.304;4.870;2023-05-10T14:48:36;14.65;;;5.18;;
69244;SDS011;56357;52.304;4.870;2023-05-10T14:51:02;23.58;;;4.95;;
69244;SDS011;56357;52.304;4.870;2023-05-10T14:53:28;12.90;;;4.50;;
69244;SDS011;56357;52.304;4.870;2023-05-10T14:55:55;13.95;;;4.18;;
69244;SDS011;56357;52.304;4.870;2023-05-10T14:58:22;11.93;;;4.47;;
69244;SDS011;56357;52.304;4.870;2023-05-10T15:00:48;11.90;;;4.40;;
69244;SDS011;56357;52.304;4.870;2023-05-10T15:03:15;14.18;;;4.22;;